Time,TemperatureF,DewpointF,PressureIn,WindDirection,WindDirectionDegrees,WindSpeedMPH,WindSpeedGustMPH,Humidity,HourlyPrecipIn,Conditions,Clouds,dailyrainin,SolarRadiationWatts/m^2,SoftwareType,DateUTC
2013-11-22 00:02:00,23.0,11.0,-100.00,NNW,343,6.0,14.0,60,0.00,,,0.00,0.000000,,2013-11-22 06:02:00,
2013-11-22 00:42:00,22.0,13.0,-100.00,NW,316,3.0,11.0,68,0.00,,,0.00,0.000000,,2013-11-22 06:42:00,
2013-11-22 00:52:00,22.0,13.0,-100.00,NW,316,3.0,11.0,68,0.00,,,0.00,0.000000,,2013-11-22 06:52:00,
2013-11-22 01:02:00,22.0,13.0,-100.00,NW,316,3.0,11.0,68,0.00,,,0.00,0.000000,,2013-11-22 07:02:00,
2013-11-22 01:42:00,22.0,13.0,-100.00,NNW,339,5.0,14.0,67,0.00,,,0.00,0.000000,,2013-11-22 07:42:00,
2013-11-22 01:52:00,22.0,13.0,-100.00,NNW,339,5.0,14.0,67,0.00,,,0.00,0.000000,,2013-11-22 07:52:00,
2013-11-22 02:01:00,22.0,13.0,-100.00,NNW,339,5.0,14.0,67,0.00,,,0.00,0.000000,,2013-11-22 08:01:00,
2013-11-22 02:42:00,21.0,12.0,-100.00,NNW,329,5.0,11.0,67,0.00,,,0.00,0.000000,,2013-11-22 08:42:00,
2013-11-22 02:52:00,21.0,12.0,-100.00,NNW,329,5.0,11.0,67,0.00,,,0.00,0.000000,,2013-11-22 08:52:00,
2013-11-22 03:02:00,21.0,12.0,-100.00,NNW,329,5.0,11.0,67,0.00,,,0.00,0.000000,,2013-11-22 09:02:00,
2013-11-22 03:43:00,20.0,12.0,-100.00,NW,321,3.0,10.0,70,0.00,,,0.00,0.000000,,2013-11-22 09:43:00,
2013-11-22 03:53:00,20.0,12.0,-100.00,NW,321,3.0,10.0,70,0.00,,,0.00,0.000000,,2013-11-22 09:53:00,
2013-11-22 04:03:00,20.0,12.0,-100.00,NW,321,3.0,10.0,70,0.00,,,0.00,0.000000,,2013-11-22 10:03:00,
2013-11-22 04:43:00,18.0,11.0,-100.00,NW,324,4.0,11.0,73,0.00,,,-99.99,0.000000,,2013-11-22 10:43:00,
2013-11-22 04:53:00,18.0,11.0,-100.00,NW,324,4.0,11.0,73,0.00,,,-99.99,0.000000,,2013-11-22 10:53:00,
2013-11-22 05:02:00,18.0,11.0,-100.00,NW,324,4.0,11.0,73,0.00,,,-99.99,0.000000,,2013-11-22 11:02:00,
2013-11-22 05:43:00,14.0,9.0,-100.00,WSW,241,0.0,9.0,79,0.00,,,0.00,0.000000,,2013-11-22 11:43:00,
2013-11-22 05:52:00,14.0,9.0,-100.00,WSW,241,0.0,9.0,79,0.00,,,0.00,0.000000,,2013-11-22 11:52:00,
2013-11-22 06:02:00,14.0,9.0,-100.00,WSW,241,0.0,9.0,79,0.00,,,0.00,0.000000,,2013-11-22 12:02:00,
2013-11-22 06:42:00,10.0,6.0,-100.00,SW,229,0.0,7.0,85,0.00,,,0.00,0.000000,,2013-11-22 12:42:00,
2013-11-22 06:52:00,10.0,6.0,-100.00,SW,229,0.0,7.0,85,0.00,,,0.00,0.000000,,2013-11-22 12:52:00,
2013-11-22 07:02:00,10.0,6.0,-100.00,SW,229,0.0,7.0,85,0.00,,,0.00,0.000000,,2013-11-22 13:02:00,
2013-11-22 07:42:00,7.0,4.0,-100.00,WSW,242,0.0,2.0,86,0.00,,,0.00,0.000000,,2013-11-22 13:42:00,
2013-11-22 07:52:00,7.0,4.0,-100.00,WSW,242,0.0,2.0,86,0.00,,,0.00,0.000000,,2013-11-22 13:52:00,
2013-11-22 08:02:00,7.0,4.0,-100.00,WSW,242,0.0,2.0,86,0.00,,,0.00,0.000000,,2013-11-22 14:02:00,
2013-11-22 08:42:00,9.0,6.0,-100.00,SW,227,1.0,3.0,87,0.00,,,0.00,10.000000,,2013-11-22 14:42:00,
2013-11-22 08:52:00,9.0,6.0,-100.00,SW,227,1.0,3.0,87,0.00,,,0.00,10.000000,,2013-11-22 14:52:00,
2013-11-22 09:02:00,9.0,6.0,-100.00,SW,227,1.0,3.0,87,0.00,,,0.00,10.000000,,2013-11-22 15:02:00,
2013-11-22 09:44:00,18.0,12.0,-100.00,SW,220,3.0,6.0,77,0.00,,,0.00,124.000000,,2013-11-22 15:44:00,
2013-11-22 09:54:00,18.0,12.0,-100.00,SW,220,3.0,6.0,77,0.00,,,0.00,124.000000,,2013-11-22 15:54:00,
2013-11-22 10:03:00,18.0,12.0,-100.00,SW,220,3.0,6.0,77,0.00,,,0.00,124.000000,,2013-11-22 16:03:00,
2013-11-22 10:44:00,23.0,11.0,-100.00,SW,219,5.0,9.0,60,0.00,,,0.00,250.000000,,2013-11-22 16:44:00,
2013-11-22 10:53:00,23.0,11.0,-100.00,SW,219,5.0,9.0,60,0.00,,,0.00,250.000000,,2013-11-22 16:53:00,
2013-11-22 11:03:00,23.0,11.0,-100.00,SW,219,5.0,9.0,60,0.00,,,0.00,250.000000,,2013-11-22 17:03:00,
2013-11-22 11:42:00,26.0,6.0,-100.00,SW,214,6.0,13.0,42,0.00,,,0.00,345.000000,,2013-11-22 17:42:00,
2013-11-22 11:52:00,26.0,6.0,-100.00,SW,214,6.0,13.0,42,0.00,,,0.00,345.000000,,2013-11-22 17:52:00,
2013-11-22 12:02:00,26.0,6.0,-100.00,SW,214,6.0,13.0,42,0.00,,,0.00,345.000000,,2013-11-22 18:02:00,
2013-11-22 12:42:00,29.0,5.0,-100.00,SW,225,8.0,14.0,35,0.00,,,0.00,409.000000,,2013-11-22 18:42:00,
2013-11-22 12:52:00,29.0,5.0,-100.00,SW,225,8.0,14.0,35,0.00,,,0.00,409.000000,,2013-11-22 18:52:00,
2013-11-22 13:01:00,29.0,5.0,-100.00,SW,225,8.0,14.0,35,0.00,,,0.00,409.000000,,2013-11-22 19:01:00,
2013-11-22 13:42:00,32.0,-1.0,-100.00,WSW,240,9.0,16.0,24,0.00,,,0.00,413.000000,,2013-11-22 19:42:00,
2013-11-22 13:52:00,32.0,-1.0,-100.00,WSW,240,9.0,16.0,24,0.00,,,0.00,413.000000,,2013-11-22 19:52:00,
2013-11-22 14:02:00,32.0,-1.0,-100.00,WSW,240,9.0,16.0,24,0.00,,,0.00,413.000000,,2013-11-22 20:02:00,
2013-11-22 14:42:00,33.0,-2.0,-100.00,SW,232,10.0,21.0,22,0.00,,,0.00,323.000000,,2013-11-22 20:42:00,
2013-11-22 14:52:00,33.0,-2.0,-100.00,SW,232,10.0,21.0,22,0.00,,,0.00,323.000000,,2013-11-22 20:52:00,
2013-11-22 15:02:00,33.0,-2.0,-100.00,SW,232,10.0,21.0,22,0.00,,,0.00,323.000000,,2013-11-22 21:02:00,
2013-11-22 15:43:00,33.0,3.0,-100.00,West,263,7.0,20.0,28,0.00,,,0.00,168.000000,,2013-11-22 21:43:00,
2013-11-22 15:53:00,33.0,3.0,-100.00,West,263,7.0,20.0,28,0.00,,,0.00,168.000000,,2013-11-22 21:53:00,
2013-11-22 16:03:00,33.0,3.0,-100.00,West,263,7.0,20.0,28,0.00,,,0.00,168.000000,,2013-11-22 22:03:00,
2013-11-22 16:42:00,30.0,6.0,-100.00,West,262,6.0,24.0,36,0.00,,,0.00,95.000000,,2013-11-22 22:42:00,
2013-11-22 16:53:00,30.0,6.0,-100.00,West,262,6.0,24.0,36,0.00,,,0.00,95.000000,,2013-11-22 22:53:00,
2013-11-22 17:02:00,30.0,6.0,-100.00,West,262,6.0,24.0,36,0.00,,,0.00,95.000000,,2013-11-22 23:02:00,
2013-11-22 17:42:00,27.0,9.0,-100.00,WNW,294,7.0,14.0,46,0.00,,,0.00,14.000000,,2013-11-22 23:42:00,
2013-11-22 17:53:00,27.0,9.0,-100.00,WNW,294,7.0,14.0,46,0.00,,,0.00,14.000000,,2013-11-22 23:53:00,
2013-11-22 18:02:00,27.0,9.0,-100.00,WNW,294,7.0,14.0,46,0.00,,,0.00,14.000000,,2013-11-23 00:02:00,
2013-11-22 18:42:00,23.0,15.0,-100.00,WNW,301,5.0,14.0,71,0.00,,,0.00,0.000000,,2013-11-23 00:42:00,
2013-11-22 18:52:00,23.0,15.0,-100.00,WNW,301,5.0,14.0,71,0.00,,,0.00,0.000000,,2013-11-23 00:52:00,
2013-11-22 19:02:00,23.0,15.0,-100.00,WNW,301,5.0,14.0,71,0.00,,,0.00,0.000000,,2013-11-23 01:02:00,
2013-11-22 19:42:00,22.0,15.0,-100.00,WNW,302,6.0,13.0,74,0.00,,,0.00,0.000000,,2013-11-23 01:42:00,
2013-11-22 19:53:00,22.0,15.0,-100.00,WNW,302,6.0,13.0,74,0.00,,,0.00,0.000000,,2013-11-23 01:53:00,
2013-11-22 20:02:00,22.0,15.0,-100.00,WNW,302,6.0,13.0,74,0.00,,,0.00,0.000000,,2013-11-23 02:02:00,
2013-11-22 20:42:00,20.0,9.0,-100.00,NNW,336,8.0,16.0,61,0.00,,,0.00,0.000000,,2013-11-23 02:42:00,
2013-11-22 20:53:00,20.0,9.0,-100.00,NNW,336,8.0,16.0,61,0.00,,,0.00,0.000000,,2013-11-23 02:53:00,
2013-11-22 21:02:00,20.0,9.0,-100.00,NNW,336,8.0,16.0,61,0.00,,,0.00,0.000000,,2013-11-23 03:02:00,
2013-11-22 21:43:00,18.0,6.0,-100.00,NW,325,9.0,21.0,58,0.00,,,0.00,0.000000,,2013-11-23 03:43:00,
2013-11-22 21:53:00,18.0,6.0,-100.00,NW,325,9.0,21.0,58,0.00,,,0.00,0.000000,,2013-11-23 03:53:00,
2013-11-22 22:02:00,18.0,6.0,-100.00,NW,325,9.0,21.0,58,0.00,,,0.00,0.000000,,2013-11-23 04:02:00,
2013-11-22 22:43:00,14.0,2.0,-100.00,NW,320,9.0,23.0,57,0.00,,,0.00,0.000000,,2013-11-23 04:43:00,
2013-11-22 22:53:00,14.0,2.0,-100.00,NW,320,9.0,23.0,57,0.00,,,0.00,0.000000,,2013-11-23 04:53:00,
2013-11-22 23:03:00,14.0,2.0,-100.00,NW,320,9.0,23.0,57,0.00,,,0.00,0.000000,,2013-11-23 05:03:00,
2013-11-22 23:43:00,11.0,-2.0,-100.00,NNW,330,8.0,20.0,55,0.00,,,0.00,0.000000,,2013-11-23 05:43:00,
2013-11-22 23:53:00,11.0,-2.0,-100.00,NNW,330,8.0,20.0,55,0.00,,,0.00,0.000000,,2013-11-23 05:53:00,